Flight Track Log - Related Links

Times and Time Zones

All times are in EDT time to prevent confusion due to time zone crossing. See the FDX1989 flight status page for this flight to view local times or setup timezone preferences in your user account.

Time Position Orientation Groundspeed Altitude Reporting Facility
EDT Latitude Longitude Course Direction KTS MPH feet Rate Location/Type
Tue 03:36:42 AM 40.6931 -74.1683 53° Northeast 141 162 600  Level FlightAware ADS-B
Tue 03:36:45 AM 40.6950 -74.1663 39° Northeast 139 160 800 3,130 Climbing FlightAware ADS-B
Tue 03:37:05 AM 40.7039 -74.1548 44° Northeast 139 160 1,800 2,667 Climbing FlightAware ADS-B
Tue 03:37:21 AM 40.7145 -74.1484 25° Northeast 175 201 2,400 2,167 Climbing FlightAware ADS-B
Tue 03:37:41 AM 40.7327 -74.1528 350° North 221 254 3,100 2,229 Climbing FlightAware ADS-B
Tue 03:37:56 AM 40.7492 -74.1587 345° North 247 284 3,700 3,091 Climbing FlightAware ADS-B
Tue 03:38:14 AM 40.7699 -74.1654 346° North 267 307 4,800 3,913 Climbing FlightAware ADS-B
Tue 03:38:19 AM 40.7756 -74.1675 344° North 265 305 5,200 5,250 Climbing FlightAware ADS-B
Tue 03:38:22 AM 40.7799 -74.1695 341° North 266 306 5,500 4,500 Climbing FlightAware ADS-B
Tue 03:38:27 AM 40.7850 -74.1720 340° North 271 312 5,800 4,200 Climbing FlightAware ADS-B
Tue 03:38:32 AM 40.7903 -74.1761 330° Northwest 274 315 6,200 4,500 Climbing FlightAware ADS-B
Tue 03:38:35 AM 40.7933 -74.1793 321° Northwest 276 318 6,400 4,000 Climbing FlightAware ADS-B
Tue 03:38:38 AM 40.7964 -74.1829 319° Northwest 277 319 6,600 4,500 Climbing FlightAware ADS-B
Tue 03:38:39 AM 40.7968 -74.1841 294° West 277 319 6,700 6,000 Climbing FlightAware ADS-B
Tue 03:38:41 AM 40.7989 -74.1880 305° West 277 319 6,900 4,000 Climbing FlightAware ADS-B
Tue 03:38:42 AM 40.7993 -74.1880 360° North 278 320 6,900 4,500 Level FlightAware ADS-B
Tue 03:38:45 AM 40.8015 -74.1924 303° West 280 322 7,200 4,500 Climbing FlightAware ADS-B
Tue 03:38:46 AM 40.8018 -74.1938 286° West 280 322 7,200 4,000 Level FlightAware ADS-B
Tue 03:38:48 AM 40.8032 -74.1985 291° West 282 325 7,400 4,000 Climbing FlightAware ADS-B
Tue 03:38:49 AM 40.8037 -74.2001 292° West 282 325 7,400 3,000 Level FlightAware ADS-B
Tue 03:38:52 AM 40.8047 -74.2033 292° West 284 327 7,600 4,286 Climbing FlightAware ADS-B
Tue 03:38:56 AM 40.8060 -74.2101 284° West 284 327 7,900 3,750 Climbing FlightAware ADS-B
Tue 03:39:00 AM 40.8065 -74.2171 275° West 286 329 8,100 3,750 Climbing FlightAware ADS-B
Tue 03:39:04 AM 40.8064 -74.2241 269° West 288 331 8,400 3,600 Climbing FlightAware ADS-B
Tue 03:39:05 AM 40.8063 -74.2257 265° West 287 330 8,400 4,500 Level FlightAware ADS-B
Tue 03:39:08 AM 40.8057 -74.2310 261° West 288 331 8,700 4,800 Climbing FlightAware ADS-B
Tue 03:39:10 AM 40.8051 -74.2344 257° West 289 333 8,800 4,000 Climbing FlightAware ADS-B
Tue 03:39:11 AM 40.8048 -74.2362 258° West 288 331 8,900 4,000 Climbing FlightAware ADS-B
Tue 03:39:13 AM 40.8039 -74.2394 250° West 288 331 9,000 4,000 Climbing FlightAware ADS-B
Tue 03:39:14 AM 40.8035 -74.2411 253° West 288 331 9,100 4,500 Climbing FlightAware ADS-B
Tue 03:39:17 AM 40.8019 -74.2462 247° West 289 333 9,300 4,500 Climbing FlightAware ADS-B
Tue 03:39:18 AM 40.8014 -74.2478 248° West 289 333 9,400 4,000 Climbing FlightAware ADS-B
Tue 03:39:20 AM 40.8002 -74.2509 243° Southwest 290 334 9,500 4,500 Climbing FlightAware ADS-B
Tue 03:39:22 AM 40.7990 -74.2542 244° Southwest 291 335 9,700 3,000 Climbing FlightAware ADS-B
Tue 03:39:24 AM 40.7978 -74.2573 243° Southwest 294 338 9,700 1,500 Level FlightAware ADS-B
Tue 03:39:54 AM 40.7751 -74.3103 241° Southwest 350 403 10,500 1,571 Climbing FlightAware ADS-B
Tue 03:40:06 AM 40.7658 -74.3315 240° Southwest 372 428 10,800 1,742 Climbing FlightAware ADS-B
Tue 03:40:25 AM 40.7493 -74.3705 241° Southwest 396 456 11,400 2,600 Climbing FlightAware ADS-B
Tue 03:40:36 AM 40.7386 -74.3958 241° Southwest 398 458 12,100 4,200 Climbing FlightAware ADS-B
Tue 03:40:55 AM 40.7214 -74.4337 239° Southwest 401 461 13,500 3,750 Climbing FlightAware ADS-B
Tue 03:41:08 AM 40.7090 -74.4638 241° Southwest 409 471 14,100 3,103 Climbing FlightAware ADS-B
Tue 03:41:24 AM 40.6947 -74.4966 240° Southwest 415 478 15,000 3,522 Climbing FlightAware ADS-B
Tue 03:41:54 AM 40.6664 -74.5632 241° Southwest 418 481 16,800 3,692 Climbing FlightAware ADS-B
Tue 03:42:16 AM 40.6448 -74.6140 241° Southwest 420 483 18,200 3,257 Climbing FlightAware ADS-B
Tue 03:42:29 AM 40.6312 -74.6399 235° Southwest 428 493 18,700 2,512 Climbing FlightAware ADS-B
Tue 03:42:59 AM 40.5944 -74.7026 232° Southwest 438 504 20,000 2,852 Climbing FlightAware ADS-B
Tue 03:43:30 AM 40.5558 -74.7707 233° Southwest 443 510 21,600 2,806 Climbing FlightAware ADS-B
Tue 03:44:01 AM 40.5168 -74.8349 231° Southwest 452 520 22,900 2,459 Climbing FlightAware ADS-B
Tue 03:44:31 AM 40.4767 -74.8998 231° Southwest 461 531 24,100 2,262 Climbing FlightAware ADS-B
Tue 03:45:02 AM 40.4361 -74.9682 232° Southwest 468 539 25,200 2,262 Climbing FlightAware ADS-B
Tue 03:45:32 AM 40.3948 -75.0355 231° Southwest 474 545 26,400 2,200 Climbing FlightAware ADS-B
Tue 03:46:02 AM 40.3533 -75.1034 231° Southwest 479 551 27,400 2,262 Climbing FlightAware ADS-B
Tue 03:46:33 AM 40.3111 -75.1736 232° Southwest 478 550 28,700 2,557 Climbing FlightAware ADS-B
Tue 03:47:03 AM 40.2696 -75.2414 231° Southwest 473 544 30,000 2,600 Climbing FlightAware ADS-B
Tue 03:47:33 AM 40.2289 -75.3082 231° Southwest 468 539 31,300 2,557 Climbing FlightAware ADS-B
Tue 03:48:04 AM 40.1881 -75.3762 232° Southwest 460 529 32,600 2,361 Climbing FlightAware ADS-B
Tue 03:48:34 AM 40.1481 -75.4412 231° Southwest 458 527 33,700 2,000 Climbing FlightAware ADS-B
Tue 03:49:04 AM 40.1080 -75.5060 231° Southwest 458 527 34,600 1,700 Climbing FlightAware ADS-B
Tue 03:49:34 AM 40.0675 -75.5728 232° Southwest 458 527 35,400 1,770 Climbing FlightAware ADS-B
Tue 03:50:05 AM 40.0274 -75.6371 231° Southwest 455 524 36,400 1,672 Climbing FlightAware ADS-B
Tue 03:50:35 AM 39.9877 -75.7010 231° Southwest 453 521 37,100 1,300 Climbing FlightAware ADS-B
Tue 03:51:05 AM 39.9476 -75.7668 232° Southwest 453 521 37,700 900 Climbing FlightAware ADS-B
Tue 03:51:35 AM 39.9081 -75.8286 230° Southwest 457 526 38,000 286 Climbing FlightAware ADS-B
Tue 03:52:08 AM 39.8648 -75.8990 231° Southwest 454 522 38,000  Level FlightAware ADS-B
Tue 03:52:38 AM 39.8247 -75.9650 232° Southwest 454 522 38,000  Level FlightAware ADS-B
Tue 03:53:08 AM 39.7852 -76.0283 231° Southwest 451 519 38,000  Level FlightAware ADS-B
Tue 03:53:39 AM 39.7455 -76.0916 231° Southwest 454 522 38,000  Level FlightAware ADS-B
Tue 03:54:09 AM 39.7056 -76.1552 231° Southwest 456 525 38,000  Level FlightAware ADS-B
Tue 03:54:34 AM 39.6717 -76.2082 230° Southwest 456 525 38,000  Level FlightAware ADS-B
Tue 03:55:05 AM 39.6313 -76.2737 231° Southwest 456 525 38,000  Level FlightAware ADS-B
Tue 03:55:35 AM 39.5911 -76.3377 231° Southwest 460 529 38,000  Level FlightAware ADS-B
Tue 03:56:05 AM 39.5502 -76.4014 230° Southwest 456 525 38,000  Level FlightAware ADS-B
Tue 03:56:35 AM 39.5103 -76.4644 231° Southwest 450 518 38,000  Level FlightAware ADS-B
Tue 03:57:05 AM 39.4705 -76.5270 231° Southwest 452 520 38,000  Level FlightAware ADS-B
Tue 03:57:35 AM 39.4305 -76.5920 231° Southwest 454 522 38,000  Level FlightAware ADS-B
Tue 03:58:06 AM 39.3905 -76.6550 231° Southwest 453 521 38,000  Level FlightAware ADS-B
Tue 03:58:36 AM 39.3500 -76.7176 230° Southwest 454 522 38,000  Level FlightAware ADS-B
Tue 03:59:06 AM 39.3098 -76.7804 230° Southwest 455 524 38,000  Level FlightAware ADS-B
Tue 03:59:36 AM 39.2691 -76.8454 231° Southwest 455 524 38,000  Level FlightAware ADS-B
Tue 04:00:06 AM 39.2288 -76.9082 230° Southwest 456 525 38,000  Level FlightAware ADS-B
Tue 04:00:37 AM 39.1882 -76.9712 230° Southwest 457 526 38,000  Level FlightAware ADS-B
Tue 04:01:07 AM 39.1473 -77.0339 230° Southwest 456 525 38,000  Level FlightAware ADS-B
Tue 04:01:38 AM 39.1057 -77.0990 231° Southwest 461 531 38,000  Level FlightAware ADS-B
Tue 04:02:08 AM 39.0646 -77.1625 230° Southwest 465 535 38,000  Level FlightAware ADS-B
Tue 04:02:38 AM 39.0229 -77.2264 230° Southwest 464 534 38,000  Level FlightAware ADS-B
Tue 04:03:09 AM 38.9809 -77.2918 230° Southwest 459 528 38,000  Level FlightAware ADS-B
Tue 04:03:39 AM 38.9400 -77.3541 230° Southwest 454 522 38,000  Level FlightAware ADS-B
Tue 04:04:09 AM 38.8995 -77.4160 230° Southwest 454 522 38,000  Level FlightAware ADS-B
Tue 04:04:40 AM 38.8583 -77.4801 230° Southwest 454 522 38,000  Level FlightAware ADS-B
Tue 04:05:10 AM 38.8174 -77.5419 230° Southwest 452 520 38,000  Level FlightAware ADS-B
Tue 04:05:40 AM 38.7767 -77.6054 231° Southwest 453 521 38,000  Level FlightAware ADS-B
Tue 04:06:11 AM 38.7357 -77.6674 230° Southwest 456 525 38,000  Level FlightAware ADS-B
Tue 04:06:41 AM 38.6945 -77.7293 230° Southwest 456 525 38,000  Level FlightAware ADS-B
Tue 04:07:11 AM 38.6537 -77.7908 230° Southwest 454 522 38,000  Level FlightAware ADS-B
Tue 04:07:42 AM 38.6125 -77.8540 230° Southwest 449 517 38,000  Level FlightAware ADS-B
Tue 04:08:13 AM 38.5709 -77.9169 230° Southwest 453 521 38,000  Level FlightAware ADS-B
Tue 04:08:43 AM 38.5288 -77.9805 230° Southwest 458 527 38,000  Level FlightAware ADS-B
Tue 04:09:13 AM 38.4878 -78.0422 230° Southwest 455 524 38,000  Level FlightAware ADS-B
Tue 04:10:02 AM 38.4270 -78.1320 229° Southwest 452 520 38,000  Level FlightAware ADS-B
Tue 04:10:31 AM 38.3824 -78.1994 230° Southwest 455 524 38,000  Level FlightAware ADS-B
Tue 04:11:02 AM 38.3402 -78.2627 230° Southwest 456 525 38,000  Level FlightAware ADS-B
Tue 04:12:03 AM 38.2561 -78.3894 230° Southwest 453 521 38,000  Level FlightAware ADS-B
Tue 04:12:34 AM 38.2137 -78.4505 229° Southwest 460 529 38,000  Level FlightAware ADS-B
Tue 04:13:04 AM 38.1714 -78.5149 230° Southwest 470 541 38,000  Level FlightAware ADS-B
Tue 04:14:03 AM 38.0887 -78.6370 229° Southwest 472 543 38,000  Level FlightAware ADS-B
Tue 04:15:12 AM 37.9950 -78.7750 229° Southwest 452 520 38,000  Level FlightAware ADS-B
Tue 04:15:47 AM 37.9500 -78.8410 229° Southwest 452 520 38,000  Level FlightAware ADS-B
Tue 04:16:27 AM 37.9320 -78.8680 230° Southwest 38,000  Level FlightAware ADS-B
Tue 04:17:22 AM 37.8180 -79.0330 229° Southwest 450 518 38,000  Level FlightAware ADS-B
Tue 04:17:57 AM 37.7680 -79.1070 229° Southwest 447 514 38,000  Level FlightAware ADS-B
Tue 04:18:42 AM 37.7160 -79.1860 230° Southwest 447 514 38,000  Level FlightAware ADS-B
Tue 04:19:17 AM 37.6630 -79.2600 228° Southwest 445 512 38,000  Level FlightAware ADS-B
Tue 04:20:07 AM 37.5920 -79.3610 228° Southwest 445 512 38,000  Level FlightAware ADS-B
Tue 04:20:52 AM 37.5380 -79.4370 228° Southwest 445 512 38,000  Level FlightAware ADS-B
Tue 04:21:32 AM 37.4910 -79.5020 228° Southwest 445 512 38,000  Level FlightAware ADS-B
Tue 04:22:12 AM 37.4440 -79.5680 228° Southwest 445 512 38,000  Level FlightAware ADS-B
Tue 04:22:52 AM 37.3980 -79.6330 228° Southwest 445 512 38,000  Level FlightAware ADS-B
Tue 04:23:32 AM 37.3510 -79.6990 228° Southwest 445 512 38,000  Level FlightAware ADS-B
Tue 04:24:22 AM 37.2920 -79.7810 228° Southwest 445 512 38,000  Level FlightAware ADS-B
Tue 04:25:02 AM 37.2450 -79.8460 228° Southwest 445 512 38,000  Level FlightAware ADS-B
Tue 04:25:42 AM 37.1990 -79.9110 228° Southwest 445 512 38,000  Level FlightAware ADS-B
Tue 04:26:22 AM 37.1520 -79.9770 228° Southwest 445 512 38,000  Level FlightAware ADS-B
Tue 04:27:02 AM 37.1050 -80.0420 228° Southwest 445 512 38,000  Level FlightAware ADS-B
Tue 04:27:42 AM 37.0580 -80.1070 228° Southwest 445 512 38,000  Level FlightAware ADS-B
Tue 04:28:32 AM 37.0000 -80.1880 228° Southwest 445 512 38,000  Level FlightAware ADS-B
Tue 04:29:12 AM 36.9530 -80.2540 228° Southwest 445 512 38,000  Level FlightAware ADS-B
Tue 04:29:52 AM 36.9060 -80.3190 228° Southwest 445 512 38,000  Level FlightAware ADS-B
Tue 04:34:24 AM 36.3923 -81.0509 229° Southwest 459 528 38,000  Level FlightAware ADS-B
Tue 04:34:55 AM 36.3483 -81.1092 227° Southwest 457 526 38,000  Level FlightAware ADS-B
Tue 04:37:12 AM 36.1570 -81.3700 228° Southwest 38,000  Level FlightAware ADS-B
Tue 04:38:14 AM 36.0633 -81.4967 228° Southwest 458 527 38,000  Level FlightAware ADS-B
Tue 04:38:48 AM 36.0128 -81.5592 225° Southwest 456 525 38,000  Level FlightAware ADS-B
Tue 04:39:18 AM 35.9671 -81.6139 224° Southwest 456 525 38,000  Level FlightAware ADS-B
Tue 04:39:49 AM 35.9209 -81.6707 225° Southwest 458 527 38,000  Level FlightAware ADS-B
Tue 04:40:19 AM 35.8753 -81.7259 224° Southwest 458 527 38,000  Level FlightAware ADS-B
Tue 04:40:50 AM 35.8286 -81.7831 225° Southwest 460 529 38,000  Level FlightAware ADS-B
Tue 04:41:20 AM 35.7830 -81.8381 224° Southwest 460 529 38,000  Level FlightAware ADS-B
Tue 04:41:51 AM 35.7357 -81.8954 225° Southwest 461 531 38,000  Level FlightAware ADS-B
Tue 04:42:21 AM 35.6900 -81.9526 225° Southwest 460 529 38,000  Level FlightAware ADS-B
Tue 04:42:51 AM 35.6442 -82.0076 224° Southwest 459 528 38,000  Level FlightAware ADS-B
Tue 04:43:22 AM 35.5979 -82.0623 224° Southwest 458 527 38,000  Level FlightAware ADS-B
Tue 04:43:52 AM 35.5519 -82.1190 225° Southwest 460 529 38,000 -393 Level FlightAware ADS-B
Tue 04:44:23 AM 35.5060 -82.1745 225° Southwest 463 533 37,600 -885 Descending FlightAware ADS-B
Tue 04:44:53 AM 35.4601 -82.2295 224° Southwest 455 524 37,100 -1,000 Descending FlightAware ADS-B
Tue 04:45:23 AM 35.4148 -82.2837 224° Southwest 453 521 36,600 -1,100 Descending FlightAware ADS-B
Tue 04:45:53 AM 35.3699 -82.3376 224° Southwest 454 522 36,000 -1,100 Descending FlightAware ADS-B
Tue 04:46:23 AM 35.3245 -82.3918 224° Southwest 458 527 35,500 -984 Descending FlightAware ADS-B
Tue 04:46:54 AM 35.2778 -82.4482 225° Southwest 462 532 35,000 -1,082 Descending FlightAware ADS-B
Tue 04:47:24 AM 35.2311 -82.5033 224° Southwest 468 539 34,400 -1,000 Descending FlightAware ADS-B
Tue 04:47:54 AM 35.1841 -82.5610 225° Southwest 469 540 34,000 -393 Descending FlightAware ADS-B
Tue 04:48:25 AM 35.1367 -82.6163 224° Southwest 465 535 34,000  Level FlightAware ADS-B
Tue 04:48:57 AM 35.0880 -82.6751 225° Southwest 467 537 34,000  Level FlightAware ADS-B
Tue 04:49:27 AM 35.0412 -82.7307 224° Southwest 471 542 34,000  Level FlightAware ADS-B
Tue 04:49:58 AM 34.9929 -82.7879 224° Southwest 470 541 34,000  Level FlightAware ADS-B
Tue 04:50:28 AM 34.9462 -82.8431 224° Southwest 466 536 34,000  Level FlightAware ADS-B
Tue 04:50:58 AM 34.8993 -82.8978 224° Southwest 464 534 34,000  Level FlightAware ADS-B
Tue 04:51:31 AM 34.8484 -82.9576 224° Southwest 463 533 34,000  Level FlightAware ADS-B
Tue 04:52:01 AM 34.8022 -83.0124 224° Southwest 467 537 34,000 -500 Level FlightAware ADS-B
Tue 04:52:31 AM 34.7549 -83.0674 224° Southwest 467 537 33,500 -2,100 Descending FlightAware ADS-B
Tue 04:53:01 AM 34.7082 -83.1236 225° Southwest 464 534 31,900 -3,443 Descending FlightAware ADS-B
Tue 04:53:32 AM 34.6606 -83.1780 223° Southwest 465 535 30,000 -3,738 Descending FlightAware ADS-B
Tue 04:54:02 AM 34.6133 -83.2342 224° Southwest 463 533 28,100 -3,500 Descending FlightAware ADS-B
Tue 04:54:32 AM 34.5672 -83.2877 224° Southwest 455 524 26,500 -3,049 Descending FlightAware ADS-B
Tue 04:55:03 AM 34.5215 -83.3401 223° Southwest 443 510 25,000 -2,903 Descending FlightAware ADS-B
Tue 04:55:34 AM 34.4770 -83.3927 224° Southwest 432 497 23,500 -2,769 Descending FlightAware ADS-B
Tue 04:56:47 AM 34.3800 -83.5060 224° Southwest 412 474 20,200 -2,814 Descending FlightAware ADS-B
Tue 04:57:27 AM 34.3210 -83.5730 223° Southwest 400 460 18,200 -2,965 Descending FlightAware ADS-B
Tue 04:58:12 AM 34.2620 -83.6420 224° Southwest 390 449 16,000 -2,824 Descending FlightAware ADS-B
Tue 04:58:52 AM 34.2150 -83.6970 224° Southwest 381 438 14,200 -2,080 Descending FlightAware ADS-B
Tue 04:59:27 AM 34.1710 -83.7470 223° Southwest 352 405 13,400 -1,200 Descending FlightAware ADS-B
Tue 05:00:07 AM 34.1250 -83.8000 224° Southwest 315 362 12,700 -988 Descending FlightAware ADS-B
Tue 05:00:52 AM 34.0790 -83.8520 223° Southwest 295 339 12,000 -847 Descending FlightAware ADS-B
Tue 05:01:32 AM 34.0390 -83.8970 223° Southwest 283 326 11,500 -1,271 Descending FlightAware ADS-B
Tue 05:02:17 AM 33.9940 -83.9430 220° Southwest 281 323 10,200 -1,714 Descending FlightAware ADS-B
Tue 05:02:42 AM 33.9680 -83.9710 222° Southwest 285 328 9,500 -1,527 Descending FlightAware ADS-B
Tue 05:03:12 AM 33.9380 -83.9980 217° Southwest 278 320 8,800 -1,418 Descending FlightAware ADS-B
Tue 05:03:37 AM 33.9080 -84.0080 195° South 267 307 8,200 -1,527 Descending FlightAware ADS-B
Tue 05:04:07 AM 33.8700 -84.0210 196° South 272 313 7,400 -1,500 Descending FlightAware ADS-B
Tue 05:04:37 AM 33.8380 -84.0320 196° South 269 310 6,700 -1,440 Descending FlightAware ADS-B
Tue 05:04:57 AM 33.8130 -84.0410 197° South 269 310 6,200 -667 Descending FlightAware ADS-B
Tue 05:05:22 AM 33.7840 -84.0510 196° South 269 310 6,200 -1,100 Level FlightAware ADS-B
Tue 05:05:57 AM 33.7442 -84.0664 196° South 274 315 5,100 -821 Descending Atlanta Center
Tue 05:06:57 AM 33.6814 -84.0911 198° South 257 296 4,900 -400 Descending Atlanta Center
Tue 05:07:57 AM 33.6544 -84.1511 242° Southwest 208 239 4,300 -375 Descending Atlanta Center
Tue 05:09:05 AM 33.6500 -84.2167 265° West 186 214 4,100 -563 Descending Atlanta TRACON
Tue 05:10:05 AM 33.6500 -84.2833 270° West 187 215 3,100 -950 Descending Atlanta TRACON
Tue 05:11:05 AM 33.6500 -84.3333 270° West 160 184 2,200 -800 Descending Atlanta TRACON
Tue 05:12:05 AM 33.6500 -84.3833 270° West 121 139 1,500 -700 Descending Atlanta TRACON
Tue 05:14:00 AM 33.6367 -84.4279 270° West  Level Estimated
Tue 05:21:00 AM 33.6367 -84.4279 64° Northeast  Level Estimated

Login

Don't have an account? Register now (free) for customized features, flight alerts, and more!